sensor_id;sensor_type;location;lat;lon;timestamp;pressure;altitude;pressure_sealevel;temperature;humidity
65394;BME280;52002;49.760;6.512;2023-11-18T00:01:15;100932.70;;;6.96;85.44
65394;BME280;52002;49.760;6.512;2023-11-18T00:03:40;100931.20;;;6.98;85.26
65394;BME280;52002;49.760;6.512;2023-11-18T00:06:06;100924.08;;;6.96;84.95
65394;BME280;52002;49.760;6.512;2023-11-18T00:08:33;100918.34;;;6.94;84.79
65394;BME280;52002;49.760;6.512;2023-11-18T00:10:58;100913.98;;;6.93;84.91
65394;BME280;52002;49.760;6.512;2023-11-18T00:13:24;100909.20;;;6.93;84.92
65394;BME280;52002;49.760;6.512;2023-11-18T00:15:51;100898.39;;;6.90;84.88
65394;BME280;52002;49.760;6.512;2023-11-18T00:18:17;100897.27;;;6.88;84.72
65394;BME280;52002;49.760;6.512;2023-11-18T00:20:44;100899.44;;;6.87;84.71
65394;BME280;52002;49.760;6.512;2023-11-18T00:23:09;100905.83;;;6.87;84.82
65394;BME280;52002;49.760;6.512;2023-11-18T00:25:34;100905.44;;;6.88;84.91
65394;BME280;52002;49.760;6.512;2023-11-18T00:28:01;100903.20;;;6.89;85.09
65394;BME280;52002;49.760;6.512;2023-11-18T00:30:27;100901.36;;;6.91;84.85
65394;BME280;52002;49.760;6.512;2023-11-18T00:32:53;100904.00;;;6.91;84.99
65394;BME280;52002;49.760;6.512;2023-11-18T00:35:19;100904.59;;;6.93;85.02
65394;BME280;52002;49.760;6.512;2023-11-18T00:37:44;100905.61;;;6.93;84.92
65394;BME280;52002;49.760;6.512;2023-11-18T00:40:10;100904.38;;;6.93;84.76
65394;BME280;52002;49.760;6.512;2023-11-18T00:42:37;100913.44;;;6.93;84.63
65394;BME280;52002;49.760;6.512;2023-11-18T00:45:03;100914.60;;;6.91;84.81
65394;BME280;52002;49.760;6.512;2023-11-18T00:47:29;100914.38;;;6.89;84.49
65394;BME280;52002;49.760;6.512;2023-11-18T00:49:55;100911.50;;;6.87;84.54
65394;BME280;52002;49.760;6.512;2023-11-18T00:52:20;100906.76;;;6.86;84.83
65394;BME280;52002;49.760;6.512;2023-11-18T00:54:45;100901.42;;;6.87;84.80
65394;BME280;52002;49.760;6.512;2023-11-18T00:57:11;100896.54;;;6.85;84.51
65394;BME280;52002;49.760;6.512;2023-11-18T00:59:37;100893.24;;;6.84;84.78
65394;BME280;52002;49.760;6.512;2023-11-18T01:02:02;100892.46;;;6.85;84.72
65394;BME280;52002;49.760;6.512;2023-11-18T01:04:28;100893.34;;;6.85;84.92
65394;BME280;52002;49.760;6.512;2023-11-18T01:06:54;100895.81;;;6.86;84.86
65394;BME280;52002;49.760;6.512;2023-11-18T01:09:19;100894.89;;;6.86;84.99
65394;BME280;52002;49.760;6.512;2023-11-18T01:11:44;100896.08;;;6.87;84.74
65394;BME280;52002;49.760;6.512;2023-11-18T01:14:10;100897.48;;;6.87;84.80
65394;BME280;52002;49.760;6.512;2023-11-18T01:16:35;100900.09;;;6.88;84.98
65394;BME280;52002;49.760;6.512;2023-11-18T01:19:00;100900.02;;;6.89;84.79
65394;BME280;52002;49.760;6.512;2023-11-18T01:21:26;100897.95;;;6.89;84.73
65394;BME280;52002;49.760;6.512;2023-11-18T01:23:52;100901.48;;;6.89;84.75
65394;BME280;52002;49.760;6.512;2023-11-18T01:26:18;100899.00;;;6.89;84.80
65394;BME280;52002;49.760;6.512;2023-11-18T01:28:43;100899.73;;;6.88;84.76
65394;BME280;52002;49.760;6.512;2023-11-18T01:31:10;100901.98;;;6.86;84.71
65394;BME280;52002;49.760;6.512;2023-11-18T01:33:39;100906.09;;;6.85;84.66
65394;BME280;52002;49.760;6.512;2023-11-18T01:36:06;100913.80;;;6.83;84.61
65394;BME280;52002;49.760;6.512;2023-11-18T01:38:34;100920.13;;;6.83;84.65
65394;BME280;52002;49.760;6.512;2023-11-18T01:40:59;100922.10;;;6.83;84.48
65394;BME280;52002;49.760;6.512;2023-11-18T01:43:25;100918.90;;;6.83;84.73
65394;BME280;52002;49.760;6.512;2023-11-18T01:45:51;100922.44;;;6.84;84.72
65394;BME280;52002;49.760;6.512;2023-11-18T01:48:16;100919.70;;;6.85;84.77
65394;BME280;52002;49.760;6.512;2023-11-18T01:50:42;100924.90;;;6.88;84.55
65394;BME280;52002;49.760;6.512;2023-11-18T01:53:11;100922.48;;;6.90;84.70
65394;BME280;52002;49.760;6.512;2023-11-18T01:55:39;100918.77;;;6.90;84.70
65394;BME280;52002;49.760;6.512;2023-11-18T01:58:05;100915.39;;;6.87;84.31
65394;BME280;52002;49.760;6.512;2023-11-18T02:00:41;100916.27;;;6.84;84.34
65394;BME280;52002;49.760;6.512;2023-11-18T02:03:07;100908.98;;;6.78;84.11
65394;BME280;52002;49.760;6.512;2023-11-18T02:05:34;100914.11;;;6.72;83.92
65394;BME280;52002;49.760;6.512;2023-11-18T02:08:00;100923.98;;;6.67;83.88
65394;BME280;52002;49.760;6.512;2023-11-18T02:10:29;100928.98;;;6.60;83.77
65394;BME280;52002;49.760;6.512;2023-11-18T02:15:33;100918.92;;;6.50;83.85
65394;BME280;52002;49.760;6.512;2023-11-18T02:18:02;100914.45;;;6.48;84.07
65394;BME280;52002;49.760;6.512;2023-11-18T02:20:29;100915.83;;;6.45;84.13
65394;BME280;52002;49.760;6.512;2023-11-18T02:22:55;100919.03;;;6.41;84.36
65394;BME280;52002;49.760;6.512;2023-11-18T02:25:24;100915.83;;;6.42;84.10
65394;BME280;52002;49.760;6.512;2023-11-18T02:27:52;100922.81;;;6.44;84.66
65394;BME280;52002;49.760;6.512;2023-11-18T02:30:18;100923.50;;;6.44;84.49
65394;BME280;52002;49.760;6.512;2023-11-18T02:35:55;100920.73;;;6.43;84.32
65394;BME280;52002;49.760;6.512;2023-11-18T02:38:30;100922.14;;;6.40;84.44
65394;BME280;52002;49.760;6.512;2023-11-18T02:41:05;100922.92;;;6.38;84.70
65394;BME280;52002;49.760;6.512;2023-11-18T02:43:35;100929.52;;;6.37;84.69
65394;BME280;52002;49.760;6.512;2023-11-18T02:46:03;100925.66;;;6.37;84.83
65394;BME280;52002;49.760;6.512;2023-11-18T02:48:30;100923.88;;;6.37;84.97
65394;BME280;52002;49.760;6.512;2023-11-18T02:50:57;100920.04;;;6.39;84.82
65394;BME280;52002;49.760;6.512;2023-11-18T02:53:22;100917.63;;;6.41;85.02
65394;BME280;52002;49.760;6.512;2023-11-18T02:55:47;100914.35;;;6.43;85.05
65394;BME280;52002;49.760;6.512;2023-11-18T02:58:13;100907.77;;;6.44;85.31
65394;BME280;52002;49.760;6.512;2023-11-18T03:00:38;100913.30;;;6.46;85.53
65394;BME280;52002;49.760;6.512;2023-11-18T03:03:04;100914.62;;;6.48;85.40
65394;BME280;52002;49.760;6.512;2023-11-18T03:05:30;100916.16;;;6.51;85.89
65394;BME280;52002;49.760;6.512;2023-11-18T03:07:55;100908.41;;;6.54;85.47
65394;BME280;52002;49.760;6.512;2023-11-18T03:10:23;100901.60;;;6.56;85.54
65394;BME280;52002;49.760;6.512;2023-11-18T03:12:50;100897.01;;;6.56;85.16
65394;BME280;52002;49.760;6.512;2023-11-18T03:15:16;100902.96;;;6.53;84.99
65394;BME280;52002;49.760;6.512;2023-11-18T03:17:49;100906.52;;;6.53;85.10
65394;BME280;52002;49.760;6.512;2023-11-18T03:20:16;100900.73;;;6.52;85.05
65394;BME280;52002;49.760;6.512;2023-11-18T03:22:48;100896.46;;;6.50;85.10
65394;BME280;52002;49.760;6.512;2023-11-18T03:25:13;100898.52;;;6.48;84.93
65394;BME280;52002;49.760;6.512;2023-11-18T03:27:39;100900.27;;;6.48;85.18
65394;BME280;52002;49.760;6.512;2023-11-18T03:30:06;100902.14;;;6.46;85.43
65394;BME280;52002;49.760;6.512;2023-11-18T03:32:32;100906.11;;;6.45;85.20
65394;BME280;52002;49.760;6.512;2023-11-18T03:34:58;100904.80;;;6.46;85.26
65394;BME280;52002;49.760;6.512;2023-11-18T03:37:26;100906.90;;;6.49;85.55
65394;BME280;52002;49.760;6.512;2023-11-18T03:39:52;100901.84;;;6.51;85.34
65394;BME280;52002;49.760;6.512;2023-11-18T03:42:17;100899.05;;;6.54;85.69
65394;BME280;52002;49.760;6.512;2023-11-18T03:44:43;100889.16;;;6.57;85.51
65394;BME280;52002;49.760;6.512;2023-11-18T03:47:10;100881.48;;;6.58;85.61
65394;BME280;52002;49.760;6.512;2023-11-18T03:49:35;100880.86;;;6.57;85.28
65394;BME280;52002;49.760;6.512;2023-11-18T03:52:01;100883.00;;;6.57;85.38
65394;BME280;52002;49.760;6.512;2023-11-18T03:54:27;100884.70;;;6.58;85.80
65394;BME280;52002;49.760;6.512;2023-11-18T03:56:52;100885.26;;;6.57;85.63
65394;BME280;52002;49.760;6.512;2023-11-18T03:59:17;100879.59;;;6.57;85.75
65394;BME280;52002;49.760;6.512;2023-11-18T04:01:42;100877.68;;;6.57;85.67
65394;BME280;52002;49.760;6.512;2023-11-18T04:04:08;100875.39;;;6.53;85.32
65394;BME280;52002;49.760;6.512;2023-11-18T04:06:33;100875.27;;;6.52;85.51
65394;BME280;52002;49.760;6.512;2023-11-18T04:08:58;100871.89;;;6.52;85.44
65394;BME280;52002;49.760;6.512;2023-11-18T04:11:24;100870.86;;;6.51;85.49
65394;BME280;52002;49.760;6.512;2023-11-18T04:13:49;100863.61;;;6.49;85.14
65394;BME280;52002;49.760;6.512;2023-11-18T04:16:15;100864.42;;;6.47;85.25
65394;BME280;52002;49.760;6.512;2023-11-18T04:18:45;100866.66;;;6.45;85.39
65394;BME280;52002;49.760;6.512;2023-11-18T04:21:12;100877.02;;;6.46;85.34
65394;BME280;52002;49.760;6.512;2023-11-18T04:23:42;100873.13;;;6.46;85.50
65394;BME280;52002;49.760;6.512;2023-11-18T04:26:08;100873.23;;;6.48;85.65
65394;BME280;52002;49.760;6.512;2023-11-18T04:28:35;100879.11;;;6.50;85.58
65394;BME280;52002;49.760;6.512;2023-11-18T04:31:00;100872.02;;;6.47;85.74
65394;BME280;52002;49.760;6.512;2023-11-18T04:33:26;100870.30;;;6.49;85.95
65394;BME280;52002;49.760;6.512;2023-11-18T04:35:52;100872.29;;;6.51;85.67
65394;BME280;52002;49.760;6.512;2023-11-18T04:38:18;100871.73;;;6.56;86.07
65394;BME280;52002;49.760;6.512;2023-11-18T04:40:44;100869.55;;;6.60;86.32
65394;BME280;52002;49.760;6.512;2023-11-18T04:43:11;100868.32;;;6.63;86.00
65394;BME280;52002;49.760;6.512;2023-11-18T04:45:37;100864.66;;;6.62;85.81
65394;BME280;52002;49.760;6.512;2023-11-18T04:48:03;100866.54;;;6.63;85.61
65394;BME280;52002;49.760;6.512;2023-11-18T04:50:30;100864.09;;;6.65;85.78
65394;BME280;52002;49.760;6.512;2023-11-18T04:52:57;100868.89;;;6.68;85.84
65394;BME280;52002;49.760;6.512;2023-11-18T04:55:22;100862.88;;;6.68;85.40
65394;BME280;52002;49.760;6.512;2023-11-18T04:57:47;100857.10;;;6.70;85.56
65394;BME280;52002;49.760;6.512;2023-11-18T05:00:13;100856.52;;;6.71;85.64
65394;BME280;52002;49.760;6.512;2023-11-18T05:02:42;100850.77;;;6.72;85.30
65394;BME280;52002;49.760;6.512;2023-11-18T05:05:08;100848.09;;;6.70;85.67
65394;BME280;52002;49.760;6.512;2023-11-18T05:07:34;100845.03;;;6.70;85.60
65394;BME280;52002;49.760;6.512;2023-11-18T05:10:00;100843.59;;;6.71;85.63
65394;BME280;52002;49.760;6.512;2023-11-18T05:12:26;100843.71;;;6.72;85.54
65394;BME280;52002;49.760;6.512;2023-11-18T05:14:54;100842.55;;;6.70;85.71
65394;BME280;52002;49.760;6.512;2023-11-18T05:17:22;100836.61;;;6.72;85.71
65394;BME280;52002;49.760;6.512;2023-11-18T05:19:47;100832.76;;;6.72;85.37
65394;BME280;52002;49.760;6.512;2023-11-18T05:22:13;100827.82;;;6.74;85.89
65394;BME280;52002;49.760;6.512;2023-11-18T05:24:38;100832.40;;;6.74;85.46
65394;BME280;52002;49.760;6.512;2023-11-18T05:27:04;100834.89;;;6.77;85.40
65394;BME280;52002;49.760;6.512;2023-11-18T05:29:29;100833.36;;;6.76;85.26
65394;BME280;52002;49.760;6.512;2023-11-18T05:31:54;100834.95;;;6.76;85.40
65394;BME280;52002;49.760;6.512;2023-11-18T05:34:23;100831.70;;;6.77;85.32
65394;BME280;52002;49.760;6.512;2023-11-18T05:36:49;100832.73;;;6.78;85.10
65394;BME280;52002;49.760;6.512;2023-11-18T05:39:20;100829.67;;;6.79;85.63
65394;BME280;52002;49.760;6.512;2023-11-18T05:41:45;100828.02;;;6.80;85.45
65394;BME280;52002;49.760;6.512;2023-11-18T05:44:15;100830.84;;;6.80;85.11
65394;BME280;52002;49.760;6.512;2023-11-18T05:46:47;100830.58;;;6.81;85.62
65394;BME280;52002;49.760;6.512;2023-11-18T05:49:13;100827.64;;;6.83;85.46
65394;BME280;52002;49.760;6.512;2023-11-18T05:51:39;100822.58;;;6.82;85.59
65394;BME280;52002;49.760;6.512;2023-11-18T05:54:06;100814.03;;;6.83;85.69
65394;BME280;52002;49.760;6.512;2023-11-18T05:56:32;100808.64;;;6.84;85.53
65394;BME280;52002;49.760;6.512;2023-11-18T05:58:57;100807.30;;;6.86;85.25
65394;BME280;52002;49.760;6.512;2023-11-18T06:01:23;100802.80;;;6.87;85.22
65394;BME280;52002;49.760;6.512;2023-11-18T06:03:49;100799.41;;;6.88;85.26
65394;BME280;52002;49.760;6.512;2023-11-18T06:06:15;100799.20;;;6.88;85.21
65394;BME280;52002;49.760;6.512;2023-11-18T06:08:42;100802.48;;;6.90;85.39
65394;BME280;52002;49.760;6.512;2023-11-18T06:11:11;100803.58;;;6.89;85.28
65394;BME280;52002;49.760;6.512;2023-11-18T06:13:51;100802.05;;;6.88;84.94
65394;BME280;52002;49.760;6.512;2023-11-18T06:16:21;100800.05;;;6.86;85.00
65394;BME280;52002;49.760;6.512;2023-11-18T06:18:49;100798.11;;;6.82;84.88
65394;BME280;52002;49.760;6.512;2023-11-18T06:21:16;100799.04;;;6.82;84.81
65394;BME280;52002;49.760;6.512;2023-11-18T06:23:45;100797.91;;;6.80;84.94
65394;BME280;52002;49.760;6.512;2023-11-18T06:26:11;100795.80;;;6.77;84.85
65394;BME280;52002;49.760;6.512;2023-11-18T06:28:41;100794.83;;;6.75;85.18
65394;BME280;52002;49.760;6.512;2023-11-18T06:31:07;100792.30;;;6.76;85.26
65394;BME280;52002;49.760;6.512;2023-11-18T06:33:40;100792.02;;;6.78;85.38
65394;BME280;52002;49.760;6.512;2023-11-18T06:36:08;100790.92;;;6.81;85.61
65394;BME280;52002;49.760;6.512;2023-11-18T06:38:34;100791.52;;;6.84;85.41
65394;BME280;52002;49.760;6.512;2023-11-18T06:41:00;100783.56;;;6.86;85.55
65394;BME280;52002;49.760;6.512;2023-11-18T06:43:28;100783.09;;;6.89;85.54
65394;BME280;52002;49.760;6.512;2023-11-18T06:46:01;100790.64;;;6.90;85.28
65394;BME280;52002;49.760;6.512;2023-11-18T06:48:27;100785.83;;;6.90;85.41
65394;BME280;52002;49.760;6.512;2023-11-18T06:50:52;100788.20;;;6.89;85.22
65394;BME280;52002;49.760;6.512;2023-11-18T06:53:17;100778.98;;;6.89;85.39
65394;BME280;52002;49.760;6.512;2023-11-18T06:55:42;100770.98;;;6.90;85.34
65394;BME280;52002;49.760;6.512;2023-11-18T06:58:08;100769.17;;;6.90;85.10
65394;BME280;52002;49.760;6.512;2023-11-18T07:00:36;100762.80;;;6.90;85.15
65394;BME280;52002;49.760;6.512;2023-11-18T07:03:02;100767.53;;;6.91;85.22
65394;BME280;52002;49.760;6.512;2023-11-18T07:05:27;100776.21;;;6.91;85.09
65394;BME280;52002;49.760;6.512;2023-11-18T07:07:54;100783.29;;;6.94;85.25
65394;BME280;52002;49.760;6.512;2023-11-18T07:10:19;100785.35;;;6.95;85.13
65394;BME280;52002;49.760;6.512;2023-11-18T07:12:46;100787.98;;;6.95;84.98
65394;BME280;52002;49.760;6.512;2023-11-18T07:15:14;100789.30;;;7.00;85.32
65394;BME280;52002;49.760;6.512;2023-11-18T07:17:39;100786.71;;;7.01;85.28
65394;BME280;52002;49.760;6.512;2023-11-18T07:20:06;100781.82;;;7.03;85.13
65394;BME280;52002;49.760;6.512;2023-11-18T07:22:31;100781.47;;;7.06;85.22
65394;BME280;52002;49.760;6.512;2023-11-18T07:24:57;100777.73;;;7.09;85.62
65394;BME280;52002;49.760;6.512;2023-11-18T07:27:22;100773.02;;;7.11;85.39
65394;BME280;52002;49.760;6.512;2023-11-18T07:29:48;100769.55;;;7.13;85.45
65394;BME280;52002;49.760;6.512;2023-11-18T07:32:13;100771.42;;;7.14;85.07
65394;BME280;52002;49.760;6.512;2023-11-18T07:34:39;100765.20;;;7.12;84.83
65394;BME280;52002;49.760;6.512;2023-11-18T07:37:06;100772.64;;;7.12;85.02
65394;BME280;52002;49.760;6.512;2023-11-18T07:39:33;100775.80;;;7.12;84.98
65394;BME280;52002;49.760;6.512;2023-11-18T07:42:13;100776.39;;;7.14;84.81
65394;BME280;52002;49.760;6.512;2023-11-18T07:44:40;100774.13;;;7.17;84.99
65394;BME280;52002;49.760;6.512;2023-11-18T07:47:05;100775.04;;;7.19;85.10
65394;BME280;52002;49.760;6.512;2023-11-18T07:49:31;100788.50;;;7.24;84.96
65394;BME280;52002;49.760;6.512;2023-11-18T07:51:57;100795.16;;;7.26;84.91
65394;BME280;52002;49.760;6.512;2023-11-18T07:54:23;100802.85;;;7.30;84.92
65394;BME280;52002;49.760;6.512;2023-11-18T07:56:49;100796.20;;;7.35;85.05
65394;BME280;52002;49.760;6.512;2023-11-18T07:59:16;100786.20;;;7.38;85.21
65394;BME280;52002;49.760;6.512;2023-11-18T08:01:43;100780.55;;;7.41;84.98
65394;BME280;52002;49.760;6.512;2023-11-18T08:04:12;100778.10;;;7.43;84.87
65394;BME280;52002;49.760;6.512;2023-11-18T08:06:41;100780.02;;;7.47;85.10
65394;BME280;52002;49.760;6.512;2023-11-18T08:09:09;100774.08;;;7.49;84.63
65394;BME280;52002;49.760;6.512;2023-11-18T08:11:38;100765.61;;;7.48;84.22
65394;BME280;52002;49.760;6.512;2023-11-18T08:14:04;100753.17;;;7.46;84.39
65394;BME280;52002;49.760;6.512;2023-11-18T08:16:29;100738.64;;;7.46;84.44
65394;BME280;52002;49.760;6.512;2023-11-18T08:18:55;100742.04;;;7.46;84.22
65394;BME280;52002;49.760;6.512;2023-11-18T08:21:21;100749.48;;;7.45;84.08
65394;BME280;52002;49.760;6.512;2023-11-18T08:23:47;100752.96;;;7.46;84.21
65394;BME280;52002;49.760;6.512;2023-11-18T08:26:13;100764.30;;;7.49;84.22
65394;BME280;52002;49.760;6.512;2023-11-18T08:28:39;100770.98;;;7.50;83.96
65394;BME280;52002;49.760;6.512;2023-11-18T08:31:05;100773.34;;;7.52;84.26
65394;BME280;52002;49.760;6.512;2023-11-18T08:33:31;100780.40;;;7.55;84.27
65394;BME280;52002;49.760;6.512;2023-11-18T08:35:57;100777.09;;;7.57;84.09
65394;BME280;52002;49.760;6.512;2023-11-18T08:38:22;100781.08;;;7.58;84.01
65394;BME280;52002;49.760;6.512;2023-11-18T08:40:47;100777.98;;;7.62;84.27
65394;BME280;52002;49.760;6.512;2023-11-18T08:43:13;100786.41;;;7.66;84.09
65394;BME280;52002;49.760;6.512;2023-11-18T08:45:41;100787.00;;;7.68;84.06
65394;BME280;52002;49.760;6.512;2023-11-18T08:48:07;100792.52;;;7.68;83.76
65394;BME280;52002;49.760;6.512;2023-11-18T08:50:36;100798.23;;;7.67;83.68
65394;BME280;52002;49.760;6.512;2023-11-18T08:53:05;100793.16;;;7.69;83.74
65394;BME280;52002;49.760;6.512;2023-11-18T08:55:32;100792.02;;;7.70;83.82
65394;BME280;52002;49.760;6.512;2023-11-18T08:58:04;100790.01;;;7.73;83.87
65394;BME280;52002;49.760;6.512;2023-11-18T09:00:41;100790.04;;;7.76;83.84
65394;BME280;52002;49.760;6.512;2023-11-18T09:03:16;100786.45;;;7.77;83.62
65394;BME280;52002;49.760;6.512;2023-11-18T09:06:04;100790.53;;;7.77;83.40
65394;BME280;52002;49.760;6.512;2023-11-18T09:08:32;100788.09;;;7.76;83.39
65394;BME280;52002;49.760;6.512;2023-11-18T09:11:01;100788.14;;;7.75;83.39
65394;BME280;52002;49.760;6.512;2023-11-18T09:13:27;100785.79;;;7.73;83.10
65394;BME280;52002;49.760;6.512;2023-11-18T09:16:01;100789.66;;;7.73;83.23
65394;BME280;52002;49.760;6.512;2023-11-18T09:18:28;100786.67;;;7.73;83.09
65394;BME280;52002;49.760;6.512;2023-11-18T09:20:55;100781.57;;;7.72;83.15
65394;BME280;52002;49.760;6.512;2023-11-18T09:23:25;100786.13;;;7.73;83.24
65394;BME280;52002;49.760;6.512;2023-11-18T09:25:52;100782.34;;;7.74;83.34
65394;BME280;52002;49.760;6.512;2023-11-18T09:28:19;100783.11;;;7.76;83.26
65394;BME280;52002;49.760;6.512;2023-11-18T09:30:45;100782.25;;;7.79;83.17
65394;BME280;52002;49.760;6.512;2023-11-18T09:33:24;100786.63;;;7.82;83.18
65394;BME280;52002;49.760;6.512;2023-11-18T09:36:03;100785.14;;;7.86;83.07
65394;BME280;52002;49.760;6.512;2023-11-18T09:38:36;100780.64;;;7.84;82.99
65394;BME280;52002;49.760;6.512;2023-11-18T09:41:04;100784.29;;;7.88;83.31
65394;BME280;52002;49.760;6.512;2023-11-18T09:43:36;100784.45;;;7.94;83.42
65394;BME280;52002;49.760;6.512;2023-11-18T09:46:11;100781.92;;;7.97;83.02
65394;BME280;52002;49.760;6.512;2023-11-18T09:48:45;100788.80;;;7.95;83.01
65394;BME280;52002;49.760;6.512;2023-11-18T09:51:14;100790.88;;;7.93;82.91
65394;BME280;52002;49.760;6.512;2023-11-18T09:53:44;100788.67;;;7.92;83.13
65394;BME280;52002;49.760;6.512;2023-11-18T09:56:19;100790.98;;;7.92;83.11
65394;BME280;52002;49.760;6.512;2023-11-18T09:59:01;100792.10;;;7.91;83.11
65394;BME280;52002;49.760;6.512;2023-11-18T10:01:34;100792.91;;;7.89;82.98
65394;BME280;52002;49.760;6.512;2023-11-18T10:04:04;100798.41;;;7.89;83.08
65394;BME280;52002;49.760;6.512;2023-11-18T10:06:35;100798.45;;;7.88;83.01
65394;BME280;52002;49.760;6.512;2023-11-18T10:09:02;100793.48;;;7.89;82.97
65394;BME280;52002;49.760;6.512;2023-11-18T10:11:42;100785.55;;;7.90;83.22
65394;BME280;52002;49.760;6.512;2023-11-18T10:14:08;100779.51;;;7.94;83.39
65394;BME280;52002;49.760;6.512;2023-11-18T10:16:34;100772.01;;;7.97;83.20
65394;BME280;52002;49.760;6.512;2023-11-18T10:19:02;100766.23;;;7.99;83.16
65394;BME280;52002;49.760;6.512;2023-11-18T10:21:36;100759.91;;;7.98;82.94
65394;BME280;52002;49.760;6.512;2023-11-18T10:24:08;100756.00;;;7.98;83.13
65394;BME280;52002;49.760;6.512;2023-11-18T10:26:43;100748.92;;;7.98;83.07
65394;BME280;52002;49.760;6.512;2023-11-18T10:29:10;100739.38;;;7.97;83.02
65394;BME280;52002;49.760;6.512;2023-11-18T10:31:41;100742.71;;;8.00;83.04
65394;BME280;52002;49.760;6.512;2023-11-18T10:34:14;100738.92;;;8.04;83.17
65394;BME280;52002;49.760;6.512;2023-11-18T10:36:41;100724.76;;;8.07;83.03
65394;BME280;52002;49.760;6.512;2023-11-18T10:39:13;100714.23;;;8.08;83.04
65394;BME280;52002;49.760;6.512;2023-11-18T10:41:42;100711.48;;;8.06;82.81
65394;BME280;52002;49.760;6.512;2023-11-18T10:44:08;100709.10;;;8.08;83.03
65394;BME280;52002;49.760;6.512;2023-11-18T10:46:44;100704.14;;;8.13;83.00
65394;BME280;52002;49.760;6.512;2023-11-18T10:49:16;100691.58;;;8.18;83.01
65394;BME280;52002;49.760;6.512;2023-11-18T10:51:43;100689.18;;;8.24;82.98
65394;BME280;52002;49.760;6.512;2023-11-18T10:54:13;100683.52;;;8.32;82.88
65394;BME280;52002;49.760;6.512;2023-11-18T10:56:49;100684.10;;;8.37;82.85
65394;BME280;52002;49.760;6.512;2023-11-18T10:59:15;100684.08;;;8.39;82.89
65394;BME280;52002;49.760;6.512;2023-11-18T11:01:44;100680.33;;;8.42;82.94
65394;BME280;52002;49.760;6.512;2023-11-18T11:04:13;100683.30;;;8.43;82.69
65394;BME280;52002;49.760;6.512;2023-11-18T11:06:43;100677.69;;;8.45;82.78
65394;BME280;52002;49.760;6.512;2023-11-18T11:09:11;100671.60;;;8.45;82.65
65394;BME280;52002;49.760;6.512;2023-11-18T11:11:50;100665.01;;;8.49;82.58
65394;BME280;52002;49.760;6.512;2023-11-18T11:14:20;100666.77;;;8.52;82.66
65394;BME280;52002;49.760;6.512;2023-11-18T11:16:56;100661.73;;;8.55;82.55
65394;BME280;52002;49.760;6.512;2023-11-18T11:19:26;100656.94;;;8.58;82.42
65394;BME280;52002;49.760;6.512;2023-11-18T11:22:05;100651.23;;;8.63;82.75
65394;BME280;52002;49.760;6.512;2023-11-18T11:24:58;100647.07;;;8.67;82.65
65394;BME280;52002;49.760;6.512;2023-11-18T11:27:33;100641.45;;;8.71;82.65
65394;BME280;52002;49.760;6.512;2023-11-18T11:30:42;100643.95;;;8.76;82.72
65394;BME280;52002;49.760;6.512;2023-11-18T11:33:26;100637.66;;;8.80;82.43
65394;BME280;52002;49.760;6.512;2023-11-18T11:35:55;100634.77;;;8.80;82.53
65394;BME280;52002;49.760;6.512;2023-11-18T11:38:24;100639.50;;;8.81;82.35
65394;BME280;52002;49.760;6.512;2023-11-18T11:40:53;100636.27;;;8.79;82.37
65394;BME280;52002;49.760;6.512;2023-11-18T11:43:20;100633.04;;;8.77;82.01
65394;BME280;52002;49.760;6.512;2023-11-18T11:45:50;100636.53;;;8.76;81.94
65394;BME280;52002;49.760;6.512;2023-11-18T11:48:17;100637.70;;;8.74;82.19
65394;BME280;52002;49.760;6.512;2023-11-18T11:54:01;100622.51;;;8.88;82.43
65394;BME280;52002;49.760;6.512;2023-11-18T11:56:41;100621.47;;;8.95;82.13
65394;BME280;52002;49.760;6.512;2023-11-18T11:59:06;100617.43;;;9.02;81.95
65394;BME280;52002;49.760;6.512;2023-11-18T12:01:37;100608.13;;;9.08;81.91
65394;BME280;52002;49.760;6.512;2023-11-18T12:04:09;100596.01;;;9.13;81.79
65394;BME280;52002;49.760;6.512;2023-11-18T12:06:46;100595.52;;;9.18;81.46
65394;BME280;52002;49.760;6.512;2023-11-18T12:09:13;100596.65;;;9.14;81.26
65394;BME280;52002;49.760;6.512;2023-11-18T12:11:48;100593.45;;;9.07;81.14
65394;BME280;52002;49.760;6.512;2023-11-18T12:14:17;100594.88;;;9.05;81.37
65394;BME280;52002;49.760;6.512;2023-11-18T12:17:08;100584.39;;;9.05;81.50
65394;BME280;52002;49.760;6.512;2023-11-18T12:19:41;100588.21;;;9.04;81.33
65394;BME280;52002;49.760;6.512;2023-11-18T12:22:12;100584.65;;;9.04;81.35
65394;BME280;52002;49.760;6.512;2023-11-18T12:24:44;100582.11;;;9.07;81.58
65394;BME280;52002;49.760;6.512;2023-11-18T12:27:09;100571.88;;;9.15;81.49
65394;BME280;52002;49.760;6.512;2023-11-18T12:29:47;100556.78;;;9.22;81.28
65394;BME280;52002;49.760;6.512;2023-11-18T12:35:22;100526.41;;;9.27;80.89
65394;BME280;52002;49.760;6.512;2023-11-18T12:40:45;100503.96;;;9.36;80.67
65394;BME280;52002;49.760;6.512;2023-11-18T12:43:15;100487.81;;;9.42;80.66
65394;BME280;52002;49.760;6.512;2023-11-18T12:48:49;100452.65;;;9.49;80.59
65394;BME280;52002;49.760;6.512;2023-11-18T12:51:17;100441.42;;;9.52;80.35
65394;BME280;52002;49.760;6.512;2023-11-18T12:53:49;100425.19;;;9.52;80.02
65394;BME280;52002;49.760;6.512;2023-11-18T12:56:19;100405.05;;;9.53;80.38
65394;BME280;52002;49.760;6.512;2023-11-18T12:58:46;100395.48;;;9.53;80.18
65394;BME280;52002;49.760;6.512;2023-11-18T13:01:12;100401.34;;;9.53;80.14
65394;BME280;52002;49.760;6.512;2023-11-18T13:03:40;100410.95;;;9.53;80.02
65394;BME280;52002;49.760;6.512;2023-11-18T13:06:10;100423.73;;;9.49;79.76
65394;BME280;52002;49.760;6.512;2023-11-18T13:08:38;100440.36;;;9.43;80.03
65394;BME280;52002;49.760;6.512;2023-11-18T13:11:04;100450.75;;;9.34;80.04
65394;BME280;52002;49.760;6.512;2023-11-18T13:13:33;100459.31;;;9.29;80.15
65394;BME280;52002;49.760;6.512;2023-11-18T13:15:59;100462.08;;;9.23;80.50
65394;BME280;52002;49.760;6.512;2023-11-18T13:18:25;100450.30;;;9.19;80.39
65394;BME280;52002;49.760;6.512;2023-11-18T13:20:58;100442.52;;;9.14;80.35
65394;BME280;52002;49.760;6.512;2023-11-18T13:23:27;100438.61;;;9.12;80.57